sensor_id;sensor_type;location;lat;lon;timestamp;temperature;humidity
37678;DHT22;23517;50.390;8.616;2022-07-22T00:00:58;18.30;66.00
37678;DHT22;23517;50.390;8.616;2022-07-22T00:03:25;18.30;65.70
37678;DHT22;23517;50.390;8.616;2022-07-22T00:05:52;18.30;65.80
37678;DHT22;23517;50.390;8.616;2022-07-22T00:08:18;18.20;65.50
37678;DHT22;23517;50.390;8.616;2022-07-22T00:10:45;18.20;65.30
37678;DHT22;23517;50.390;8.616;2022-07-22T00:13:12;18.20;66.20
37678;DHT22;23517;50.390;8.616;2022-07-22T00:15:40;18.20;64.70
37678;DHT22;23517;50.390;8.616;2022-07-22T00:18:07;18.20;64.40
37678;DHT22;23517;50.390;8.616;2022-07-22T00:20:34;18.20;64.50
37678;DHT22;23517;50.390;8.616;2022-07-22T00:23:01;18.20;64.50
37678;DHT22;23517;50.390;8.616;2022-07-22T00:25:27;18.20;64.60
37678;DHT22;23517;50.390;8.616;2022-07-22T00:27:55;18.20;64.70
37678;DHT22;23517;50.390;8.616;2022-07-22T00:30:22;18.20;64.60
37678;DHT22;23517;50.390;8.616;2022-07-22T00:32:52;18.20;64.10
37678;DHT22;23517;50.390;8.616;2022-07-22T00:35:19;18.30;64.20
37678;DHT22;23517;50.390;8.616;2022-07-22T00:37:46;18.30;64.10
37678;DHT22;23517;50.390;8.616;2022-07-22T00:40:13;18.30;63.80
37678;DHT22;23517;50.390;8.616;2022-07-22T00:42:40;18.40;62.90
37678;DHT22;23517;50.390;8.616;2022-07-22T00:45:08;18.40;63.00
37678;DHT22;23517;50.390;8.616;2022-07-22T00:47:36;18.40;62.50
37678;DHT22;23517;50.390;8.616;2022-07-22T00:50:03;18.40;62.80
37678;DHT22;23517;50.390;8.616;2022-07-22T00:52:32;18.50;62.60
37678;DHT22;23517;50.390;8.616;2022-07-22T00:55:00;18.50;62.20
37678;DHT22;23517;50.390;8.616;2022-07-22T00:57:27;18.50;62.20
37678;DHT22;23517;50.390;8.616;2022-07-22T00:59:55;18.50;62.30
37678;DHT22;23517;50.390;8.616;2022-07-22T01:02:22;18.50;62.30
37678;DHT22;23517;50.390;8.616;2022-07-22T01:04:50;18.50;62.30
37678;DHT22;23517;50.390;8.616;2022-07-22T01:07:17;18.50;62.30
37678;DHT22;23517;50.390;8.616;2022-07-22T01:09:45;18.60;62.00
37678;DHT22;23517;50.390;8.616;2022-07-22T01:12:13;18.50;62.40
37678;DHT22;23517;50.390;8.616;2022-07-22T01:14:41;18.50;62.40
37678;DHT22;23517;50.390;8.616;2022-07-22T01:17:09;18.50;62.40
37678;DHT22;23517;50.390;8.616;2022-07-22T01:19:36;18.50;62.40
37678;DHT22;23517;50.390;8.616;2022-07-22T01:22:07;18.60;62.40
37678;DHT22;23517;50.390;8.616;2022-07-22T01:24:34;18.60;62.00
37678;DHT22;23517;50.390;8.616;2022-07-22T01:27:01;18.60;61.70
37678;DHT22;23517;50.390;8.616;2022-07-22T01:29:28;18.60;62.20
37678;DHT22;23517;50.390;8.616;2022-07-22T01:31:56;18.60;61.50
37678;DHT22;23517;50.390;8.616;2022-07-22T01:34:23;18.60;61.70
37678;DHT22;23517;50.390;8.616;2022-07-22T01:36:50;18.60;61.40
37678;DHT22;23517;50.390;8.616;2022-07-22T01:39:17;18.50;61.50
37678;DHT22;23517;50.390;8.616;2022-07-22T01:41:44;18.40;62.20
37678;DHT22;23517;50.390;8.616;2022-07-22T01:44:10;18.40;62.20
37678;DHT22;23517;50.390;8.616;2022-07-22T01:46:37;18.40;62.30
37678;DHT22;23517;50.390;8.616;2022-07-22T01:49:05;18.40;61.90
37678;DHT22;23517;50.390;8.616;2022-07-22T01:51:32;18.40;62.20
37678;DHT22;23517;50.390;8.616;2022-07-22T01:53:58;18.40;62.20
37678;DHT22;23517;50.390;8.616;2022-07-22T01:56:25;18.40;62.60
37678;DHT22;23517;50.390;8.616;2022-07-22T01:58:52;18.40;63.00
37678;DHT22;23517;50.390;8.616;2022-07-22T02:01:19;18.40;62.30
37678;DHT22;23517;50.390;8.616;2022-07-22T02:03:47;18.40;62.40
37678;DHT22;23517;50.390;8.616;2022-07-22T02:06:14;18.30;62.20
37678;DHT22;23517;50.390;8.616;2022-07-22T02:08:41;18.30;62.50
37678;DHT22;23517;50.390;8.616;2022-07-22T02:11:08;18.20;62.60
37678;DHT22;23517;50.390;8.616;2022-07-22T02:13:35;18.20;62.20
37678;DHT22;23517;50.390;8.616;2022-07-22T02:16:02;18.20;62.50
37678;DHT22;23517;50.390;8.616;2022-07-22T02:18:29;18.10;62.80
37678;DHT22;23517;50.390;8.616;2022-07-22T02:20:55;18.20;62.60
37678;DHT22;23517;50.390;8.616;2022-07-22T02:23:22;18.10;62.70
37678;DHT22;23517;50.390;8.616;2022-07-22T02:25:49;18.10;62.90
37678;DHT22;23517;50.390;8.616;2022-07-22T02:28:16;18.00;63.00
37678;DHT22;23517;50.390;8.616;2022-07-22T02:30:42;18.00;62.80
37678;DHT22;23517;50.390;8.616;2022-07-22T02:33:09;17.90;63.20
37678;DHT22;23517;50.390;8.616;2022-07-22T02:35:36;17.90;63.50
37678;DHT22;23517;50.390;8.616;2022-07-22T02:38:04;17.90;63.50
37678;DHT22;23517;50.390;8.616;2022-07-22T02:40:31;17.90;63.90
37678;DHT22;23517;50.390;8.616;2022-07-22T02:42:58;17.80;64.00
37678;DHT22;23517;50.390;8.616;2022-07-22T02:45:25;17.80;64.50
37678;DHT22;23517;50.390;8.616;2022-07-22T02:47:54;17.80;64.40
37678;DHT22;23517;50.390;8.616;2022-07-22T02:50:22;17.70;64.80
37678;DHT22;23517;50.390;8.616;2022-07-22T02:52:49;17.60;65.20
37678;DHT22;23517;50.390;8.616;2022-07-22T02:55:16;17.60;65.20
37678;DHT22;23517;50.390;8.616;2022-07-22T02:57:43;17.60;65.30
37678;DHT22;23517;50.390;8.616;2022-07-22T03:00:11;17.60;65.20
37678;DHT22;23517;50.390;8.616;2022-07-22T03:02:40;17.60;65.30
37678;DHT22;23517;50.390;8.616;2022-07-22T03:05:07;17.50;65.60
37678;DHT22;23517;50.390;8.616;2022-07-22T03:07:35;17.50;65.80
37678;DHT22;23517;50.390;8.616;2022-07-22T03:10:03;17.50;65.60
37678;DHT22;23517;50.390;8.616;2022-07-22T03:12:30;17.40;65.50
37678;DHT22;23517;50.390;8.616;2022-07-22T03:14:59;17.40;65.60
37678;DHT22;23517;50.390;8.616;2022-07-22T03:17:25;17.40;65.80
37678;DHT22;23517;50.390;8.616;2022-07-22T03:19:52;17.30;66.10
37678;DHT22;23517;50.390;8.616;2022-07-22T03:22:19;17.30;66.20
37678;DHT22;23517;50.390;8.616;2022-07-22T03:24:46;17.20;66.20
37678;DHT22;23517;50.390;8.616;2022-07-22T03:27:12;17.20;67.00
37678;DHT22;23517;50.390;8.616;2022-07-22T03:29:39;17.20;66.90
37678;DHT22;23517;50.390;8.616;2022-07-22T03:32:06;17.10;67.20
37678;DHT22;23517;50.390;8.616;2022-07-22T03:34:33;17.10;67.10
37678;DHT22;23517;50.390;8.616;2022-07-22T03:36:59;17.10;67.30
37678;DHT22;23517;50.390;8.616;2022-07-22T03:39:26;17.10;67.30
37678;DHT22;23517;50.390;8.616;2022-07-22T03:41:53;17.00;67.50
37678;DHT22;23517;50.390;8.616;2022-07-22T03:44:19;17.00;67.80
37678;DHT22;23517;50.390;8.616;2022-07-22T03:46:46;16.90;67.90
37678;DHT22;23517;50.390;8.616;2022-07-22T03:49:13;16.70;68.20
37678;DHT22;23517;50.390;8.616;2022-07-22T03:51:40;16.60;68.60
37678;DHT22;23517;50.390;8.616;2022-07-22T03:54:06;16.50;68.90
37678;DHT22;23517;50.390;8.616;2022-07-22T03:56:33;16.50;69.10
37678;DHT22;23517;50.390;8.616;2022-07-22T03:59:00;16.50;69.80
37678;DHT22;23517;50.390;8.616;2022-07-22T04:01:27;16.60;70.20
37678;DHT22;23517;50.390;8.616;2022-07-22T04:03:54;16.60;70.10
37678;DHT22;23517;50.390;8.616;2022-07-22T04:06:29;16.80;69.70
37678;DHT22;23517;50.390;8.616;2022-07-22T04:08:58;16.90;69.00
37678;DHT22;23517;50.390;8.616;2022-07-22T04:11:26;17.00;68.00
37678;DHT22;23517;50.390;8.616;2022-07-22T04:13:55;17.10;67.80
37678;DHT22;23517;50.390;8.616;2022-07-22T04:16:22;17.20;67.40
37678;DHT22;23517;50.390;8.616;2022-07-22T04:18:49;17.20;67.60
37678;DHT22;23517;50.390;8.616;2022-07-22T04:21:16;17.30;67.70
37678;DHT22;23517;50.390;8.616;2022-07-22T04:23:42;17.20;67.80
37678;DHT22;23517;50.390;8.616;2022-07-22T04:26:09;17.20;66.50
37678;DHT22;23517;50.390;8.616;2022-07-22T04:28:36;17.00;67.00
37678;DHT22;23517;50.390;8.616;2022-07-22T04:31:03;17.00;67.00
37678;DHT22;23517;50.390;8.616;2022-07-22T04:33:30;17.00;67.80
37678;DHT22;23517;50.390;8.616;2022-07-22T04:35:57;16.90;68.00
37678;DHT22;23517;50.390;8.616;2022-07-22T04:38:24;16.90;68.70
37678;DHT22;23517;50.390;8.616;2022-07-22T04:40:51;16.90;68.90
37678;DHT22;23517;50.390;8.616;2022-07-22T04:43:20;17.00;68.80
37678;DHT22;23517;50.390;8.616;2022-07-22T04:45:47;17.10;68.60
37678;DHT22;23517;50.390;8.616;2022-07-22T04:48:14;17.20;68.40
37678;DHT22;23517;50.390;8.616;2022-07-22T04:50:41;17.40;67.70
37678;DHT22;23517;50.390;8.616;2022-07-22T04:53:08;17.70;66.60
37678;DHT22;23517;50.390;8.616;2022-07-22T04:55:36;17.90;65.70
37678;DHT22;23517;50.390;8.616;2022-07-22T04:58:03;18.00;65.00
37678;DHT22;23517;50.390;8.616;2022-07-22T05:00:30;18.00;64.70
37678;DHT22;23517;50.390;8.616;2022-07-22T05:02:57;18.10;64.30
37678;DHT22;23517;50.390;8.616;2022-07-22T05:05:24;18.20;62.50
37678;DHT22;23517;50.390;8.616;2022-07-22T05:07:51;18.30;61.70
37678;DHT22;23517;50.390;8.616;2022-07-22T05:10:18;18.50;61.60
37678;DHT22;23517;50.390;8.616;2022-07-22T05:12:47;18.60;60.30
37678;DHT22;23517;50.390;8.616;2022-07-22T05:15:14;18.70;59.50
37678;DHT22;23517;50.390;8.616;2022-07-22T05:17:41;18.80;58.70
37678;DHT22;23517;50.390;8.616;2022-07-22T05:20:08;18.90;58.00
37678;DHT22;23517;50.390;8.616;2022-07-22T05:22:35;19.10;57.20
37678;DHT22;23517;50.390;8.616;2022-07-22T05:25:04;19.20;56.70
37678;DHT22;23517;50.390;8.616;2022-07-22T05:27:31;19.20;56.70
37678;DHT22;23517;50.390;8.616;2022-07-22T05:29:58;19.30;56.40
37678;DHT22;23517;50.390;8.616;2022-07-22T05:32:25;19.20;56.20
37678;DHT22;23517;50.390;8.616;2022-07-22T05:34:52;19.20;56.30
37678;DHT22;23517;50.390;8.616;2022-07-22T05:37:19;19.20;56.10
37678;DHT22;23517;50.390;8.616;2022-07-22T05:39:46;19.30;55.30
37678;DHT22;23517;50.390;8.616;2022-07-22T05:42:12;19.50;55.10
37678;DHT22;23517;50.390;8.616;2022-07-22T05:44:39;19.80;54.00
37678;DHT22;23517;50.390;8.616;2022-07-22T05:47:06;20.20;52.60
37678;DHT22;23517;50.390;8.616;2022-07-22T05:49:33;20.70;51.20
37678;DHT22;23517;50.390;8.616;2022-07-22T05:51:59;21.50;48.30
37678;DHT22;23517;50.390;8.616;2022-07-22T05:54:28;21.70;46.10
37678;DHT22;23517;50.390;8.616;2022-07-22T05:56:55;21.30;46.40
37678;DHT22;23517;50.390;8.616;2022-07-22T05:59:22;21.00;47.00
37678;DHT22;23517;50.390;8.616;2022-07-22T06:01:49;21.10;47.30
37678;DHT22;23517;50.390;8.616;2022-07-22T06:04:16;21.40;47.70
37678;DHT22;23517;50.390;8.616;2022-07-22T06:06:43;21.70;47.10
37678;DHT22;23517;50.390;8.616;2022-07-22T06:09:10;21.90;45.20
37678;DHT22;23517;50.390;8.616;2022-07-22T06:11:36;21.60;45.20
37678;DHT22;23517;50.390;8.616;2022-07-22T06:14:03;21.70;44.50
37678;DHT22;23517;50.390;8.616;2022-07-22T06:16:30;21.60;44.60
37678;DHT22;23517;50.390;8.616;2022-07-22T06:18:59;21.30;44.70
37678;DHT22;23517;50.390;8.616;2022-07-22T06:21:26;21.00;46.00
37678;DHT22;23517;50.390;8.616;2022-07-22T06:23:53;21.00;45.90
37678;DHT22;23517;50.390;8.616;2022-07-22T06:26:21;20.90;46.90
37678;DHT22;23517;50.390;8.616;2022-07-22T06:28:48;21.00;47.70
37678;DHT22;23517;50.390;8.616;2022-07-22T06:31:15;21.00;46.20
37678;DHT22;23517;50.390;8.616;2022-07-22T06:33:43;21.00;46.50
37678;DHT22;23517;50.390;8.616;2022-07-22T06:36:09;21.10;44.40
37678;DHT22;23517;50.390;8.616;2022-07-22T06:38:37;21.00;45.10
37678;DHT22;23517;50.390;8.616;2022-07-22T06:41:07;21.50;44.60
37678;DHT22;23517;50.390;8.616;2022-07-22T06:43:34;21.50;44.10
37678;DHT22;23517;50.390;8.616;2022-07-22T06:46:01;21.30;44.80
37678;DHT22;23517;50.390;8.616;2022-07-22T06:48:28;21.30;45.20
37678;DHT22;23517;50.390;8.616;2022-07-22T06:50:55;21.70;44.90
37678;DHT22;23517;50.390;8.616;2022-07-22T06:53:21;22.30;42.20
37678;DHT22;23517;50.390;8.616;2022-07-22T06:55:48;22.60;41.10
37678;DHT22;23517;50.390;8.616;2022-07-22T06:58:15;22.70;41.10
37678;DHT22;23517;50.390;8.616;2022-07-22T07:00:42;22.90;41.10
37678;DHT22;23517;50.390;8.616;2022-07-22T07:03:10;23.50;38.60
37678;DHT22;23517;50.390;8.616;2022-07-22T07:05:57;23.80;38.00
37678;DHT22;23517;50.390;8.616;2022-07-22T07:08:24;24.10;37.30
37678;DHT22;23517;50.390;8.616;2022-07-22T07:10:50;25.50;34.50
37678;DHT22;23517;50.390;8.616;2022-07-22T07:13:18;27.30;30.50
37678;DHT22;23517;50.390;8.616;2022-07-22T07:15:45;27.90;28.10
37678;DHT22;23517;50.390;8.616;2022-07-22T07:18:12;26.50;30.30
37678;DHT22;23517;50.390;8.616;2022-07-22T07:20:39;26.40;30.80
37678;DHT22;23517;50.390;8.616;2022-07-22T07:23:06;26.90;30.40
37678;DHT22;23517;50.390;8.616;2022-07-22T07:25:33;28.10;28.80
37678;DHT22;23517;50.390;8.616;2022-07-22T07:28:00;28.40;26.80
37678;DHT22;23517;50.390;8.616;2022-07-22T07:30:27;28.70;27.20
37678;DHT22;23517;50.390;8.616;2022-07-22T07:32:54;30.00;25.60
37678;DHT22;23517;50.390;8.616;2022-07-22T07:35:21;29.60;24.90
37678;DHT22;23517;50.390;8.616;2022-07-22T07:37:54;28.60;25.90
37678;DHT22;23517;50.390;8.616;2022-07-22T07:40:21;27.40;27.90
37678;DHT22;23517;50.390;8.616;2022-07-22T07:42:48;27.60;28.20
37678;DHT22;23517;50.390;8.616;2022-07-22T07:45:27;28.00;29.00
37678;DHT22;23517;50.390;8.616;2022-07-22T07:47:54;29.70;25.40
37678;DHT22;23517;50.390;8.616;2022-07-22T07:50:21;30.90;21.90
37678;DHT22;23517;50.390;8.616;2022-07-22T07:52:48;32.30;21.10
37678;DHT22;23517;50.390;8.616;2022-07-22T07:55:19;32.20;20.70
37678;DHT22;23517;50.390;8.616;2022-07-22T07:57:48;31.20;22.40
37678;DHT22;23517;50.390;8.616;2022-07-22T08:00:22;32.50;20.70
37678;DHT22;23517;50.390;8.616;2022-07-22T08:02:51;32.90;20.70
37678;DHT22;23517;50.390;8.616;2022-07-22T08:05:19;34.30;18.20
37678;DHT22;23517;50.390;8.616;2022-07-22T08:07:49;33.90;18.10
37678;DHT22;23517;50.390;8.616;2022-07-22T08:10:17;33.40;19.80
37678;DHT22;23517;50.390;8.616;2022-07-22T08:13:04;34.40;17.80
37678;DHT22;23517;50.390;8.616;2022-07-22T08:15:34;33.00;19.20
37678;DHT22;23517;50.390;8.616;2022-07-22T08:18:02;30.90;21.20
37678;DHT22;23517;50.390;8.616;2022-07-22T08:20:31;30.40;23.10
37678;DHT22;23517;50.390;8.616;2022-07-22T08:22:58;31.00;21.40
37678;DHT22;23517;50.390;8.616;2022-07-22T08:25:26;31.40;21.50
37678;DHT22;23517;50.390;8.616;2022-07-22T08:27:54;32.60;20.10
37678;DHT22;23517;50.390;8.616;2022-07-22T08:30:21;32.40;20.00
37678;DHT22;23517;50.390;8.616;2022-07-22T08:32:50;32.70;20.00
37678;DHT22;23517;50.390;8.616;2022-07-22T08:35:17;34.60;17.50
37678;DHT22;23517;50.390;8.616;2022-07-22T08:37:45;35.50;16.70
37678;DHT22;23517;50.390;8.616;2022-07-22T08:40:15;35.50;17.20
37678;DHT22;23517;50.390;8.616;2022-07-22T08:42:45;36.30;16.60
37678;DHT22;23517;50.390;8.616;2022-07-22T08:45:14;35.80;16.30
37678;DHT22;23517;50.390;8.616;2022-07-22T08:47:46;34.00;18.00
37678;DHT22;23517;50.390;8.616;2022-07-22T08:50:14;34.80;17.90
37678;DHT22;23517;50.390;8.616;2022-07-22T08:52:42;35.30;17.00
37678;DHT22;23517;50.390;8.616;2022-07-22T08:55:09;35.60;16.70
37678;DHT22;23517;50.390;8.616;2022-07-22T08:57:37;34.90;17.10
37678;DHT22;23517;50.390;8.616;2022-07-22T09:04:06;34.90;17.50
37678;DHT22;23517;50.390;8.616;2022-07-22T09:06:33;35.10;17.20
37678;DHT22;23517;50.390;8.616;2022-07-22T09:09:02;34.90;17.30
37678;DHT22;23517;50.390;8.616;2022-07-22T09:11:38;35.40;17.10
37678;DHT22;23517;50.390;8.616;2022-07-22T09:14:05;35.50;17.40
37678;DHT22;23517;50.390;8.616;2022-07-22T09:16:47;36.30;16.70
37678;DHT22;23517;50.390;8.616;2022-07-22T09:19:14;37.10;16.30
37678;DHT22;23517;50.390;8.616;2022-07-22T09:21:44;37.50;15.30
37678;DHT22;23517;50.390;8.616;2022-07-22T09:24:31;36.80;15.20
37678;DHT22;23517;50.390;8.616;2022-07-22T09:27:01;37.20;15.60
37678;DHT22;23517;50.390;8.616;2022-07-22T09:29:28;37.40;15.20
37678;DHT22;23517;50.390;8.616;2022-07-22T09:32:03;37.30;15.20
37678;DHT22;23517;50.390;8.616;2022-07-22T09:34:33;36.40;16.00
37678;DHT22;23517;50.390;8.616;2022-07-22T09:37:01;36.70;16.50
37678;DHT22;23517;50.390;8.616;2022-07-22T09:39:30;37.60;15.40
37678;DHT22;23517;50.390;8.616;2022-07-22T09:42:00;37.80;15.20
37678;DHT22;23517;50.390;8.616;2022-07-22T09:44:28;36.10;16.30
37678;DHT22;23517;50.390;8.616;2022-07-22T09:46:55;35.10;17.30
37678;DHT22;23517;50.390;8.616;2022-07-22T09:49:36;35.50;16.80
37678;DHT22;23517;50.390;8.616;2022-07-22T09:52:06;36.10;16.70
37678;DHT22;23517;50.390;8.616;2022-07-22T09:54:33;36.70;16.20
37678;DHT22;23517;50.390;8.616;2022-07-22T09:57:02;37.00;16.00
37678;DHT22;23517;50.390;8.616;2022-07-22T09:59:29;37.10;16.00
37678;DHT22;23517;50.390;8.616;2022-07-22T10:01:58;38.00;15.50
37678;DHT22;23517;50.390;8.616;2022-07-22T10:04:30;37.80;15.00
37678;DHT22;23517;50.390;8.616;2022-07-22T10:06:58;38.20;14.80
37678;DHT22;23517;50.390;8.616;2022-07-22T10:09:29;37.10;15.10
37678;DHT22;23517;50.390;8.616;2022-07-22T10:11:57;35.80;16.20
37678;DHT22;23517;50.390;8.616;2022-07-22T10:14:24;35.40;17.00
37678;DHT22;23517;50.390;8.616;2022-07-22T10:16:52;35.90;16.40
37678;DHT22;23517;50.390;8.616;2022-07-22T10:19:19;35.80;16.10
37678;DHT22;23517;50.390;8.616;2022-07-22T10:21:48;35.30;17.00
37678;DHT22;23517;50.390;8.616;2022-07-22T10:24:16;35.00;17.50
37678;DHT22;23517;50.390;8.616;2022-07-22T10:26:56;34.80;17.40
37678;DHT22;23517;50.390;8.616;2022-07-22T10:29:41;33.30;19.00
37678;DHT22;23517;50.390;8.616;2022-07-22T10:37:39;29.20;24.40
37678;DHT22;23517;50.390;8.616;2022-07-22T10:45:24;28.20;26.60
37678;DHT22;23517;50.390;8.616;2022-07-22T10:47:57;27.70;27.70
37678;DHT22;23517;50.390;8.616;2022-07-22T10:53:12;27.40;28.20
37678;DHT22;23517;50.390;8.616;2022-07-22T10:56:19;27.20;28.70
37678;DHT22;23517;50.390;8.616;2022-07-22T10:58:57;27.30;28.40
37678;DHT22;23517;50.390;8.616;2022-07-22T11:01:48;27.20;28.30
37678;DHT22;23517;50.390;8.616;2022-07-22T11:04:24;27.20;27.80
37678;DHT22;23517;50.390;8.616;2022-07-22T11:06:53;26.80;28.20
37678;DHT22;23517;50.390;8.616;2022-07-22T11:09:29;26.60;29.00
37678;DHT22;23517;50.390;8.616;2022-07-22T11:11:58;26.40;30.20
37678;DHT22;23517;50.390;8.616;2022-07-22T11:14:31;26.60;29.30
37678;DHT22;23517;50.390;8.616;2022-07-22T11:17:11;26.60;29.20
37678;DHT22;23517;50.390;8.616;2022-07-22T11:19:40;26.60;29.90
37678;DHT22;23517;50.390;8.616;2022-07-22T11:22:09;26.40;29.60
37678;DHT22;23517;50.390;8.616;2022-07-22T11:24:38;26.40;29.60
37678;DHT22;23517;50.390;8.616;2022-07-22T11:27:12;26.20;30.10
37678;DHT22;23517;50.390;8.616;2022-07-22T11:29:40;26.20;30.50
37678;DHT22;23517;50.390;8.616;2022-07-22T11:32:12;26.40;29.90
37678;DHT22;23517;50.390;8.616;2022-07-22T11:34:42;26.40;29.70
37678;DHT22;23517;50.390;8.616;2022-07-22T11:37:20;26.40;29.80
37678;DHT22;23517;50.390;8.616;2022-07-22T11:39:50;26.60;29.60
37678;DHT22;23517;50.390;8.616;2022-07-22T11:42:18;26.50;29.60
37678;DHT22;23517;50.390;8.616;2022-07-22T11:44:45;26.60;30.10
37678;DHT22;23517;50.390;8.616;2022-07-22T11:47:18;26.60;29.70
37678;DHT22;23517;50.390;8.616;2022-07-22T11:49:46;26.50;29.60
37678;DHT22;23517;50.390;8.616;2022-07-22T11:52:17;26.60;30.00
37678;DHT22;23517;50.390;8.616;2022-07-22T11:54:45;26.80;29.40
37678;DHT22;23517;50.390;8.616;2022-07-22T11:57:13;26.80;29.40
37678;DHT22;23517;50.390;8.616;2022-07-22T11:59:40;26.70;29.30
37678;DHT22;23517;50.390;8.616;2022-07-22T12:02:08;26.80;29.40
37678;DHT22;23517;50.390;8.616;2022-07-22T12:04:36;26.80;29.40
37678;DHT22;23517;50.390;8.616;2022-07-22T12:07:04;26.80;29.10
37678;DHT22;23517;50.390;8.616;2022-07-22T12:09:35;26.90;29.30
37678;DHT22;23517;50.390;8.616;2022-07-22T12:12:04;27.10;29.00
37678;DHT22;23517;50.390;8.616;2022-07-22T12:14:33;27.30;28.80
37678;DHT22;23517;50.390;8.616;2022-07-22T12:19:34;27.40;28.20
37678;DHT22;23517;50.390;8.616;2022-07-22T12:22:10;27.30;28.00
37678;DHT22;23517;50.390;8.616;2022-07-22T12:24:42;27.30;28.40
37678;DHT22;23517;50.390;8.616;2022-07-22T12:27:11;27.20;28.60
37678;DHT22;23517;50.390;8.616;2022-07-22T12:29:47;27.30;28.20
37678;DHT22;23517;50.390;8.616;2022-07-22T12:37:32;27.40;27.80
37678;DHT22;23517;50.390;8.616;2022-07-22T12:40:04;27.50;28.20
37678;DHT22;23517;50.390;8.616;2022-07-22T12:43:07;27.50;27.60
37678;DHT22;23517;50.390;8.616;2022-07-22T12:45:37;27.60;27.00
37678;DHT22;23517;50.390;8.616;2022-07-22T12:48:05;27.50;27.70
37678;DHT22;23517;50.390;8.616;2022-07-22T12:53:25;27.40;28.30
37678;DHT22;23517;50.390;8.616;2022-07-22T12:55:57;27.40;29.30
37678;DHT22;23517;50.390;8.616;2022-07-22T12:58:30;27.20;28.90
37678;DHT22;23517;50.390;8.616;2022-07-22T13:01:00;27.20;28.90
37678;DHT22;23517;50.390;8.616;2022-07-22T13:03:28;27.20;29.10
37678;DHT22;23517;50.390;8.616;2022-07-22T13:06:01;27.20;29.40
37678;DHT22;23517;50.390;8.616;2022-07-22T13:08:34;27.20;29.10
37678;DHT22;23517;50.390;8.616;2022-07-22T13:11:11;27.40;28.20
37678;DHT22;23517;50.390;8.616;2022-07-22T13:13:39;27.40;28.00
37678;DHT22;23517;50.390;8.616;2022-07-22T13:16:09;27.50;27.70
37678;DHT22;23517;50.390;8.616;2022-07-22T13:18:36;27.60;27.90
37678;DHT22;23517;50.390;8.616;2022-07-22T13:21:02;27.60;27.40
37678;DHT22;23517;50.390;8.616;2022-07-22T13:23:29;27.60;27.10
37678;DHT22;23517;50.390;8.616;2022-07-22T13:25:56;27.80;27.10
37678;DHT22;23517;50.390;8.616;2022-07-22T13:28:23;28.00;27.90
37678;DHT22;23517;50.390;8.616;2022-07-22T13:30:50;28.10;27.10
37678;DHT22;23517;50.390;8.616;2022-07-22T13:33:17;28.20;26.70
37678;DHT22;23517;50.390;8.616;2022-07-22T13:35:44;28.20;27.30
37678;DHT22;23517;50.390;8.616;2022-07-22T13:38:15;28.20;27.00
37678;DHT22;23517;50.390;8.616;2022-07-22T13:40:44;28.30;26.80
37678;DHT22;23517;50.390;8.616;2022-07-22T13:43:22;28.50;26.20
37678;DHT22;23517;50.390;8.616;2022-07-22T13:45:51;28.60;25.90
37678;DHT22;23517;50.390;8.616;2022-07-22T13:48:18;28.60;26.10
37678;DHT22;23517;50.390;8.616;2022-07-22T13:50:47;28.60;25.80
37678;DHT22;23517;50.390;8.616;2022-07-22T13:53:14;28.50;26.10
37678;DHT22;23517;50.390;8.616;2022-07-22T13:55:41;28.70;25.70
37678;DHT22;23517;50.390;8.616;2022-07-22T13:58:08;28.70;25.50
37678;DHT22;23517;50.390;8.616;2022-07-22T14:00:35;28.80;25.60
37678;DHT22;23517;50.390;8.616;2022-07-22T14:03:04;28.90;25.50
37678;DHT22;23517;50.390;8.616;2022-07-22T14:05:32;29.10;25.90
37678;DHT22;23517;50.390;8.616;2022-07-22T14:07:58;29.10;25.90
37678;DHT22;23517;50.390;8.616;2022-07-22T14:10:25;29.20;26.00
37678;DHT22;23517;50.390;8.616;2022-07-22T14:12:52;29.10;26.40
37678;DHT22;23517;50.390;8.616;2022-07-22T14:15:19;29.10;26.00
37678;DHT22;23517;50.390;8.616;2022-07-22T14:17:46;29.10;25.90
37678;DHT22;23517;50.390;8.616;2022-07-22T14:20:13;28.70;26.60
37678;DHT22;23517;50.390;8.616;2022-07-22T14:22:40;28.80;26.10
37678;DHT22;23517;50.390;8.616;2022-07-22T14:25:08;28.60;26.30
37678;DHT22;23517;50.390;8.616;2022-07-22T14:27:34;28.50;26.50
37678;DHT22;23517;50.390;8.616;2022-07-22T14:30:04;28.40;26.60
37678;DHT22;23517;50.390;8.616;2022-07-22T14:32:31;28.30;27.10
37678;DHT22;23517;50.390;8.616;2022-07-22T14:34:58;28.20;27.10
37678;DHT22;23517;50.390;8.616;2022-07-22T14:37:24;28.00;27.50
37678;DHT22;23517;50.390;8.616;2022-07-22T14:39:53;28.20;27.30
37678;DHT22;23517;50.390;8.616;2022-07-22T14:42:20;28.40;27.00
37678;DHT22;23517;50.390;8.616;2022-07-22T14:44:47;28.40;27.00
37678;DHT22;23517;50.390;8.616;2022-07-22T14:47:14;28.50;26.90
37678;DHT22;23517;50.390;8.616;2022-07-22T14:49:40;28.60;26.10
37678;DHT22;23517;50.390;8.616;2022-07-22T14:52:07;28.40;26.10
37678;DHT22;23517;50.390;8.616;2022-07-22T14:54:34;28.30;26.70
37678;DHT22;23517;50.390;8.616;2022-07-22T14:57:01;28.40;27.10
37678;DHT22;23517;50.390;8.616;2022-07-22T14:59:29;28.80;26.30
37678;DHT22;23517;50.390;8.616;2022-07-22T15:01:56;29.00;25.90
37678;DHT22;23517;50.390;8.616;2022-07-22T15:04:23;28.80;26.00
37678;DHT22;23517;50.390;8.616;2022-07-22T15:06:50;28.90;26.20
37678;DHT22;23517;50.390;8.616;2022-07-22T15:09:16;29.20;26.10
37678;DHT22;23517;50.390;8.616;2022-07-22T15:11:43;29.20;25.90
37678;DHT22;23517;50.390;8.616;2022-07-22T15:14:10;29.20;25.30
37678;DHT22;23517;50.390;8.616;2022-07-22T15:16:36;29.10;25.80
37678;DHT22;23517;50.390;8.616;2022-07-22T15:19:03;29.30;25.60
37678;DHT22;23517;50.390;8.616;2022-07-22T15:21:30;29.30;25.30
37678;DHT22;23517;50.390;8.616;2022-07-22T15:23:58;29.30;25.20
37678;DHT22;23517;50.390;8.616;2022-07-22T15:26:26;29.20;25.30
37678;DHT22;23517;50.390;8.616;2022-07-22T15:28:53;29.20;25.50
37678;DHT22;23517;50.390;8.616;2022-07-22T15:31:20;29.20;25.50
37678;DHT22;23517;50.390;8.616;2022-07-22T15:33:47;29.10;25.60
37678;DHT22;23517;50.390;8.616;2022-07-22T15:36:16;29.00;26.20
37678;DHT22;23517;50.390;8.616;2022-07-22T15:38:43;29.10;25.70
37678;DHT22;23517;50.390;8.616;2022-07-22T15:41:10;29.00;26.00
37678;DHT22;23517;50.390;8.616;2022-07-22T15:43:38;28.80;25.80
37678;DHT22;23517;50.390;8.616;2022-07-22T15:46:06;28.60;26.30
37678;DHT22;23517;50.390;8.616;2022-07-22T15:48:33;28.30;27.20
37678;DHT22;23517;50.390;8.616;2022-07-22T15:51:00;28.10;27.40
37678;DHT22;23517;50.390;8.616;2022-07-22T15:53:29;27.80;27.80
37678;DHT22;23517;50.390;8.616;2022-07-22T15:55:57;27.80;27.70
37678;DHT22;23517;50.390;8.616;2022-07-22T15:58:24;27.70;28.20
37678;DHT22;23517;50.390;8.616;2022-07-22T16:01:30;27.60;28.40
37678;DHT22;23517;50.390;8.616;2022-07-22T16:03:57;27.60;28.60
37678;DHT22;23517;50.390;8.616;2022-07-22T16:06:30;27.70;28.20